sensor_id;sensor_type;location;lat;lon;timestamp;temperature;humidity
5705;DHT22;2877;48.238;11.160;2022-12-18T00:01:47;-4.30;99.90
5705;DHT22;2877;48.238;11.160;2022-12-18T00:04:31;-4.40;99.90
5705;DHT22;2877;48.238;11.160;2022-12-18T00:06:57;-4.30;99.90
5705;DHT22;2877;48.238;11.160;2022-12-18T00:09:23;-4.30;99.90
5705;DHT22;2877;48.238;11.160;2022-12-18T00:11:48;-4.30;99.90
5705;DHT22;2877;48.238;11.160;2022-12-18T00:14:14;-4.30;99.90
5705;DHT22;2877;48.238;11.160;2022-12-18T00:16:40;-4.40;99.90
5705;DHT22;2877;48.238;11.160;2022-12-18T00:19:10;-4.40;99.90
5705;DHT22;2877;48.238;11.160;2022-12-18T00:21:35;-4.40;99.90
5705;DHT22;2877;48.238;11.160;2022-12-18T00:24:01;-4.40;99.90
5705;DHT22;2877;48.238;11.160;2022-12-18T00:26:29;-4.40;99.90
5705;DHT22;2877;48.238;11.160;2022-12-18T00:28:55;-4.40;99.90
5705;DHT22;2877;48.238;11.160;2022-12-18T00:31:23;-4.40;99.90
5705;DHT22;2877;48.238;11.160;2022-12-18T00:33:49;-4.40;99.90
5705;DHT22;2877;48.238;11.160;2022-12-18T00:36:18;-4.40;99.90
5705;DHT22;2877;48.238;11.160;2022-12-18T00:38:45;-4.40;99.90
5705;DHT22;2877;48.238;11.160;2022-12-18T00:41:12;-4.40;99.90
5705;DHT22;2877;48.238;11.160;2022-12-18T00:43:38;-4.50;99.90
5705;DHT22;2877;48.238;11.160;2022-12-18T00:46:04;-4.50;99.90
5705;DHT22;2877;48.238;11.160;2022-12-18T00:48:30;-4.50;99.90
5705;DHT22;2877;48.238;11.160;2022-12-18T00:50:56;-4.60;99.90
5705;DHT22;2877;48.238;11.160;2022-12-18T00:53:21;-4.60;99.90
5705;DHT22;2877;48.238;11.160;2022-12-18T00:55:47;-4.70;99.90
5705;DHT22;2877;48.238;11.160;2022-12-18T00:58:14;-4.70;99.90
5705;DHT22;2877;48.238;11.160;2022-12-18T01:00:41;-4.80;99.90
5705;DHT22;2877;48.238;11.160;2022-12-18T01:03:07;-4.80;99.90
5705;DHT22;2877;48.238;11.160;2022-12-18T01:05:33;-4.80;99.90
5705;DHT22;2877;48.238;11.160;2022-12-18T01:07:59;-4.80;99.90
5705;DHT22;2877;48.238;11.160;2022-12-18T01:10:24;-4.90;99.90
5705;DHT22;2877;48.238;11.160;2022-12-18T01:12:50;-4.90;99.90
5705;DHT22;2877;48.238;11.160;2022-12-18T01:15:16;-4.90;99.90
5705;DHT22;2877;48.238;11.160;2022-12-18T01:17:43;-4.90;99.90
5705;DHT22;2877;48.238;11.160;2022-12-18T01:20:10;-4.90;99.90
5705;DHT22;2877;48.238;11.160;2022-12-18T01:22:36;-5.00;99.90
5705;DHT22;2877;48.238;11.160;2022-12-18T01:25:02;-5.00;99.90
5705;DHT22;2877;48.238;11.160;2022-12-18T01:27:28;-5.00;99.90
5705;DHT22;2877;48.238;11.160;2022-12-18T01:29:54;-5.00;99.90
5705;DHT22;2877;48.238;11.160;2022-12-18T01:32:20;-5.00;99.90
5705;DHT22;2877;48.238;11.160;2022-12-18T01:34:45;-5.10;99.90
5705;DHT22;2877;48.238;11.160;2022-12-18T01:37:11;-5.00;99.90
5705;DHT22;2877;48.238;11.160;2022-12-18T01:39:36;-5.10;99.90
5705;DHT22;2877;48.238;11.160;2022-12-18T01:42:03;-5.10;99.90
5705;DHT22;2877;48.238;11.160;2022-12-18T01:47:22;-5.10;99.90
5705;DHT22;2877;48.238;11.160;2022-12-18T01:49:49;-5.20;99.90
5705;DHT22;2877;48.238;11.160;2022-12-18T01:52:15;-5.20;99.90
5705;DHT22;2877;48.238;11.160;2022-12-18T01:54:42;-5.30;99.90
5705;DHT22;2877;48.238;11.160;2022-12-18T01:57:09;-5.30;99.90
5705;DHT22;2877;48.238;11.160;2022-12-18T01:59:35;-5.30;99.90
5705;DHT22;2877;48.238;11.160;2022-12-18T02:02:02;-5.30;99.90
5705;DHT22;2877;48.238;11.160;2022-12-18T02:04:28;-5.30;99.90
5705;DHT22;2877;48.238;11.160;2022-12-18T02:09:58;-5.30;99.90
5705;DHT22;2877;48.238;11.160;2022-12-18T02:12:27;-5.30;99.90
5705;DHT22;2877;48.238;11.160;2022-12-18T02:15:00;-5.30;99.90
5705;DHT22;2877;48.238;11.160;2022-12-18T02:17:52;-5.30;99.90
5705;DHT22;2877;48.238;11.160;2022-12-18T02:20:33;-5.30;99.90
5705;DHT22;2877;48.238;11.160;2022-12-18T02:26:26;-5.30;99.90
5705;DHT22;2877;48.238;11.160;2022-12-18T02:28:59;-5.40;99.90
5705;DHT22;2877;48.238;11.160;2022-12-18T02:31:33;-5.40;99.90
5705;DHT22;2877;48.238;11.160;2022-12-18T02:34:03;-5.40;99.90
5705;DHT22;2877;48.238;11.160;2022-12-18T02:36:31;-5.30;99.90
5705;DHT22;2877;48.238;11.160;2022-12-18T02:38:58;-5.30;99.90
5705;DHT22;2877;48.238;11.160;2022-12-18T02:41:25;-5.30;99.90
5705;DHT22;2877;48.238;11.160;2022-12-18T02:43:57;-5.30;99.90
5705;DHT22;2877;48.238;11.160;2022-12-18T02:46:27;-5.20;99.90
5705;DHT22;2877;48.238;11.160;2022-12-18T02:49:21;-5.30;99.90
5705;DHT22;2877;48.238;11.160;2022-12-18T02:51:55;-5.30;99.90
5705;DHT22;2877;48.238;11.160;2022-12-18T02:54:52;-5.30;99.90
5705;DHT22;2877;48.238;11.160;2022-12-18T03:00:10;-5.20;99.90
5705;DHT22;2877;48.238;11.160;2022-12-18T03:02:41;-5.20;99.90
5705;DHT22;2877;48.238;11.160;2022-12-18T03:08:07;-5.20;99.90
5705;DHT22;2877;48.238;11.160;2022-12-18T03:10:39;-5.10;99.90
5705;DHT22;2877;48.238;11.160;2022-12-18T03:13:09;-5.20;99.90
5705;DHT22;2877;48.238;11.160;2022-12-18T03:15:42;-5.20;99.90
5705;DHT22;2877;48.238;11.160;2022-12-18T03:18:29;-5.20;99.90
5705;DHT22;2877;48.238;11.160;2022-12-18T03:20:58;-5.10;99.90
5705;DHT22;2877;48.238;11.160;2022-12-18T03:23:28;-5.10;99.90
5705;DHT22;2877;48.238;11.160;2022-12-18T03:25:57;-5.10;99.90
5705;DHT22;2877;48.238;11.160;2022-12-18T03:28:24;-5.10;99.90
5705;DHT22;2877;48.238;11.160;2022-12-18T03:30:54;-5.10;99.90
5705;DHT22;2877;48.238;11.160;2022-12-18T03:33:38;-5.00;99.90
5705;DHT22;2877;48.238;11.160;2022-12-18T03:36:05;-5.00;99.90
5705;DHT22;2877;48.238;11.160;2022-12-18T03:38:30;-5.00;99.90
5705;DHT22;2877;48.238;11.160;2022-12-18T03:43:52;-5.00;99.90
5705;DHT22;2877;48.238;11.160;2022-12-18T03:49:12;-5.00;99.90
5705;DHT22;2877;48.238;11.160;2022-12-18T03:52:03;-5.00;99.90
5705;DHT22;2877;48.238;11.160;2022-12-18T03:54:30;-5.00;99.90
5705;DHT22;2877;48.238;11.160;2022-12-18T03:57:01;-5.00;99.90
5705;DHT22;2877;48.238;11.160;2022-12-18T03:59:29;-5.00;99.90
5705;DHT22;2877;48.238;11.160;2022-12-18T04:01:56;-5.00;99.90
5705;DHT22;2877;48.238;11.160;2022-12-18T04:04:24;-5.00;99.90
5705;DHT22;2877;48.238;11.160;2022-12-18T04:06:51;-5.00;99.90
5705;DHT22;2877;48.238;11.160;2022-12-18T04:09:18;-5.00;99.90
5705;DHT22;2877;48.238;11.160;2022-12-18T04:11:44;-5.00;99.90
5705;DHT22;2877;48.238;11.160;2022-12-18T04:14:11;-5.00;99.90
5705;DHT22;2877;48.238;11.160;2022-12-18T04:16:36;-5.00;99.90
5705;DHT22;2877;48.238;11.160;2022-12-18T04:19:02;-5.00;99.90
5705;DHT22;2877;48.238;11.160;2022-12-18T04:21:28;-5.00;99.90
5705;DHT22;2877;48.238;11.160;2022-12-18T04:23:53;-5.00;99.90
5705;DHT22;2877;48.238;11.160;2022-12-18T04:26:19;-5.00;99.90
5705;DHT22;2877;48.238;11.160;2022-12-18T04:28:44;-4.90;99.90
5705;DHT22;2877;48.238;11.160;2022-12-18T04:31:10;-4.90;99.90
5705;DHT22;2877;48.238;11.160;2022-12-18T04:33:35;-5.00;99.90
5705;DHT22;2877;48.238;11.160;2022-12-18T04:36:01;-5.00;99.90
5705;DHT22;2877;48.238;11.160;2022-12-18T04:38:26;-5.00;99.90
5705;DHT22;2877;48.238;11.160;2022-12-18T04:40:52;-5.10;99.90
5705;DHT22;2877;48.238;11.160;2022-12-18T04:43:17;-5.00;99.90
5705;DHT22;2877;48.238;11.160;2022-12-18T04:45:43;-5.00;99.90
5705;DHT22;2877;48.238;11.160;2022-12-18T04:48:08;-5.00;99.90
5705;DHT22;2877;48.238;11.160;2022-12-18T04:50:34;-5.00;99.90
5705;DHT22;2877;48.238;11.160;2022-12-18T04:52:59;-5.00;99.90
5705;DHT22;2877;48.238;11.160;2022-12-18T04:55:25;-5.00;99.90
5705;DHT22;2877;48.238;11.160;2022-12-18T04:57:51;-5.00;99.90
5705;DHT22;2877;48.238;11.160;2022-12-18T05:00:17;-5.00;99.90
5705;DHT22;2877;48.238;11.160;2022-12-18T05:02:42;-5.00;99.90
5705;DHT22;2877;48.238;11.160;2022-12-18T05:05:08;-5.00;99.90
5705;DHT22;2877;48.238;11.160;2022-12-18T05:07:34;-5.00;99.90
5705;DHT22;2877;48.238;11.160;2022-12-18T05:09:59;-5.00;99.90
5705;DHT22;2877;48.238;11.160;2022-12-18T05:12:25;-5.00;99.90
5705;DHT22;2877;48.238;11.160;2022-12-18T05:14:51;-5.00;99.90
5705;DHT22;2877;48.238;11.160;2022-12-18T05:17:17;-5.00;99.90
5705;DHT22;2877;48.238;11.160;2022-12-18T05:19:42;-5.00;99.90
5705;DHT22;2877;48.238;11.160;2022-12-18T05:22:09;-5.00;99.90
5705;DHT22;2877;48.238;11.160;2022-12-18T05:24:34;-5.00;99.90
5705;DHT22;2877;48.238;11.160;2022-12-18T05:27:00;-5.00;99.90
5705;DHT22;2877;48.238;11.160;2022-12-18T05:29:26;-5.00;99.90
5705;DHT22;2877;48.238;11.160;2022-12-18T05:31:51;-5.00;99.90
5705;DHT22;2877;48.238;11.160;2022-12-18T05:34:17;-5.00;99.90
5705;DHT22;2877;48.238;11.160;2022-12-18T05:36:42;-5.00;99.90
5705;DHT22;2877;48.238;11.160;2022-12-18T05:39:09;-5.00;99.90
5705;DHT22;2877;48.238;11.160;2022-12-18T05:41:34;-5.00;99.90
5705;DHT22;2877;48.238;11.160;2022-12-18T05:44:00;-5.00;99.90
5705;DHT22;2877;48.238;11.160;2022-12-18T05:46:26;-5.00;99.90
5705;DHT22;2877;48.238;11.160;2022-12-18T05:48:51;-4.90;99.90
5705;DHT22;2877;48.238;11.160;2022-12-18T05:51:19;-4.90;99.90
5705;DHT22;2877;48.238;11.160;2022-12-18T05:53:45;-4.90;99.90
5705;DHT22;2877;48.238;11.160;2022-12-18T05:56:13;-4.90;99.90
5705;DHT22;2877;48.238;11.160;2022-12-18T05:58:40;-4.90;99.90
5705;DHT22;2877;48.238;11.160;2022-12-18T06:01:13;-4.90;99.90
5705;DHT22;2877;48.238;11.160;2022-12-18T06:03:38;-4.80;99.90
5705;DHT22;2877;48.238;11.160;2022-12-18T06:08:40;-4.80;99.90
5705;DHT22;2877;48.238;11.160;2022-12-18T06:11:06;-4.80;99.90
5705;DHT22;2877;48.238;11.160;2022-12-18T06:13:31;-4.90;99.90
5705;DHT22;2877;48.238;11.160;2022-12-18T06:15:57;-4.90;99.90
5705;DHT22;2877;48.238;11.160;2022-12-18T06:18:22;-4.80;99.90
5705;DHT22;2877;48.238;11.160;2022-12-18T06:20:55;-4.90;99.90
5705;DHT22;2877;48.238;11.160;2022-12-18T06:23:21;-4.90;99.90
5705;DHT22;2877;48.238;11.160;2022-12-18T06:25:46;-4.90;99.90
5705;DHT22;2877;48.238;11.160;2022-12-18T06:28:12;-4.80;99.90
5705;DHT22;2877;48.238;11.160;2022-12-18T06:30:37;-4.80;99.90
5705;DHT22;2877;48.238;11.160;2022-12-18T06:33:03;-4.80;99.90
5705;DHT22;2877;48.238;11.160;2022-12-18T06:35:28;-4.80;99.90
5705;DHT22;2877;48.238;11.160;2022-12-18T06:37:54;-4.80;99.90
5705;DHT22;2877;48.238;11.160;2022-12-18T06:40:20;-4.80;99.90
5705;DHT22;2877;48.238;11.160;2022-12-18T06:42:45;-4.90;99.90
5705;DHT22;2877;48.238;11.160;2022-12-18T06:45:11;-4.90;99.90
5705;DHT22;2877;48.238;11.160;2022-12-18T06:47:37;-4.90;99.90
5705;DHT22;2877;48.238;11.160;2022-12-18T06:50:02;-4.90;99.90
5705;DHT22;2877;48.238;11.160;2022-12-18T06:52:28;-4.90;99.90
5705;DHT22;2877;48.238;11.160;2022-12-18T06:54:54;-4.90;99.90
5705;DHT22;2877;48.238;11.160;2022-12-18T06:57:19;-4.90;99.90
5705;DHT22;2877;48.238;11.160;2022-12-18T06:59:45;-4.90;99.90
5705;DHT22;2877;48.238;11.160;2022-12-18T07:02:11;-4.90;99.90
5705;DHT22;2877;48.238;11.160;2022-12-18T07:04:37;-4.90;99.90
5705;DHT22;2877;48.238;11.160;2022-12-18T07:07:03;-4.90;99.90
5705;DHT22;2877;48.238;11.160;2022-12-18T07:09:28;-4.90;99.90
5705;DHT22;2877;48.238;11.160;2022-12-18T07:11:54;-4.90;99.90
5705;DHT22;2877;48.238;11.160;2022-12-18T07:14:20;-4.80;99.90
5705;DHT22;2877;48.238;11.160;2022-12-18T07:16:46;-4.80;99.90
5705;DHT22;2877;48.238;11.160;2022-12-18T07:19:11;-4.80;99.90
5705;DHT22;2877;48.238;11.160;2022-12-18T07:21:37;-4.80;99.90
5705;DHT22;2877;48.238;11.160;2022-12-18T07:24:02;-4.80;99.90
5705;DHT22;2877;48.238;11.160;2022-12-18T07:26:28;-4.80;99.90
5705;DHT22;2877;48.238;11.160;2022-12-18T07:28:56;-4.80;99.90
5705;DHT22;2877;48.238;11.160;2022-12-18T07:31:23;-4.80;99.90
5705;DHT22;2877;48.238;11.160;2022-12-18T07:33:50;-4.70;99.90
5705;DHT22;2877;48.238;11.160;2022-12-18T07:36:16;-4.70;99.90
5705;DHT22;2877;48.238;11.160;2022-12-18T07:38:42;-4.70;99.90
5705;DHT22;2877;48.238;11.160;2022-12-18T07:41:10;-4.60;99.90
5705;DHT22;2877;48.238;11.160;2022-12-18T07:43:36;-4.60;99.90
5705;DHT22;2877;48.238;11.160;2022-12-18T07:46:02;-4.70;99.90
5705;DHT22;2877;48.238;11.160;2022-12-18T07:48:28;-4.70;99.90
5705;DHT22;2877;48.238;11.160;2022-12-18T07:51:01;-4.60;99.90
5705;DHT22;2877;48.238;11.160;2022-12-18T07:53:28;-4.60;99.90
5705;DHT22;2877;48.238;11.160;2022-12-18T07:55:58;-4.60;99.90
5705;DHT22;2877;48.238;11.160;2022-12-18T07:58:24;-4.50;99.90
5705;DHT22;2877;48.238;11.160;2022-12-18T08:00:50;-4.50;99.90
5705;DHT22;2877;48.238;11.160;2022-12-18T08:03:16;-4.50;99.90
5705;DHT22;2877;48.238;11.160;2022-12-18T08:05:41;-4.50;99.90
5705;DHT22;2877;48.238;11.160;2022-12-18T08:08:07;-4.50;99.90
5705;DHT22;2877;48.238;11.160;2022-12-18T08:10:32;-4.50;99.90
5705;DHT22;2877;48.238;11.160;2022-12-18T08:12:58;-4.50;99.90
5705;DHT22;2877;48.238;11.160;2022-12-18T08:15:23;-4.50;99.90
5705;DHT22;2877;48.238;11.160;2022-12-18T08:17:49;-4.40;99.90
5705;DHT22;2877;48.238;11.160;2022-12-18T08:20:15;-4.40;99.90
5705;DHT22;2877;48.238;11.160;2022-12-18T08:22:43;-4.30;99.90
5705;DHT22;2877;48.238;11.160;2022-12-18T08:25:09;-4.30;99.90
5705;DHT22;2877;48.238;11.160;2022-12-18T08:27:35;-4.20;99.90
5705;DHT22;2877;48.238;11.160;2022-12-18T08:30:01;-4.30;99.90
5705;DHT22;2877;48.238;11.160;2022-12-18T08:32:27;-4.30;99.90
5705;DHT22;2877;48.238;11.160;2022-12-18T08:34:53;-4.40;99.90
5705;DHT22;2877;48.238;11.160;2022-12-18T08:37:19;-4.20;99.90
5705;DHT22;2877;48.238;11.160;2022-12-18T08:39:44;-4.10;99.90
5705;DHT22;2877;48.238;11.160;2022-12-18T08:42:10;-4.10;99.90
5705;DHT22;2877;48.238;11.160;2022-12-18T08:44:54;-4.10;99.90
5705;DHT22;2877;48.238;11.160;2022-12-18T08:47:20;-4.00;99.90
5705;DHT22;2877;48.238;11.160;2022-12-18T08:49:45;-3.90;99.90
5705;DHT22;2877;48.238;11.160;2022-12-18T08:52:11;-3.90;99.90
5705;DHT22;2877;48.238;11.160;2022-12-18T08:54:36;-3.90;99.90
5705;DHT22;2877;48.238;11.160;2022-12-18T08:57:02;-3.80;99.90
5705;DHT22;2877;48.238;11.160;2022-12-18T08:59:27;-3.80;99.90
5705;DHT22;2877;48.238;11.160;2022-12-18T09:01:54;-3.80;99.90
5705;DHT22;2877;48.238;11.160;2022-12-18T09:04:20;-3.80;99.90
5705;DHT22;2877;48.238;11.160;2022-12-18T09:06:46;-3.80;99.90
5705;DHT22;2877;48.238;11.160;2022-12-18T09:09:12;-3.70;99.90
5705;DHT22;2877;48.238;11.160;2022-12-18T09:11:37;-3.60;99.90
5705;DHT22;2877;48.238;11.160;2022-12-18T09:14:03;-3.50;99.90
5705;DHT22;2877;48.238;11.160;2022-12-18T09:16:31;-3.50;99.90
5705;DHT22;2877;48.238;11.160;2022-12-18T09:18:56;-3.60;99.90
5705;DHT22;2877;48.238;11.160;2022-12-18T09:21:27;-3.60;99.90
5705;DHT22;2877;48.238;11.160;2022-12-18T09:23:55;-3.60;99.90
5705;DHT22;2877;48.238;11.160;2022-12-18T09:26:22;-3.60;99.90
5705;DHT22;2877;48.238;11.160;2022-12-18T09:28:48;-3.60;99.90
5705;DHT22;2877;48.238;11.160;2022-12-18T09:31:14;-3.50;99.90
5705;DHT22;2877;48.238;11.160;2022-12-18T09:33:39;-3.50;99.90
5705;DHT22;2877;48.238;11.160;2022-12-18T09:36:08;-3.30;99.90
5705;DHT22;2877;48.238;11.160;2022-12-18T09:38:34;-3.30;99.90
5705;DHT22;2877;48.238;11.160;2022-12-18T09:41:06;-3.30;99.90
5705;DHT22;2877;48.238;11.160;2022-12-18T09:43:46;-3.20;99.90
5705;DHT22;2877;48.238;11.160;2022-12-18T09:46:28;-3.20;99.90
5705;DHT22;2877;48.238;11.160;2022-12-18T09:48:57;-3.10;99.90
5705;DHT22;2877;48.238;11.160;2022-12-18T09:51:32;-3.20;99.90
5705;DHT22;2877;48.238;11.160;2022-12-18T09:54:03;-3.20;99.90
5705;DHT22;2877;48.238;11.160;2022-12-18T09:56:35;-3.10;99.90
5705;DHT22;2877;48.238;11.160;2022-12-18T09:59:03;-3.10;99.90
5705;DHT22;2877;48.238;11.160;2022-12-18T10:01:31;-3.00;99.90
5705;DHT22;2877;48.238;11.160;2022-12-18T10:03:56;-2.90;99.90
5705;DHT22;2877;48.238;11.160;2022-12-18T10:06:36;-2.90;99.90
5705;DHT22;2877;48.238;11.160;2022-12-18T10:09:26;-2.70;99.90
5705;DHT22;2877;48.238;11.160;2022-12-18T10:12:17;-2.80;99.90
5705;DHT22;2877;48.238;11.160;2022-12-18T10:15:04;-2.70;99.90
5705;DHT22;2877;48.238;11.160;2022-12-18T10:20:41;-2.20;99.90
5705;DHT22;2877;48.238;11.160;2022-12-18T10:28:15;-1.80;99.90
5705;DHT22;2877;48.238;11.160;2022-12-18T10:30:43;-1.70;99.90
5705;DHT22;2877;48.238;11.160;2022-12-18T10:33:17;-1.80;99.90
5705;DHT22;2877;48.238;11.160;2022-12-18T10:35:44;-1.90;99.90
5705;DHT22;2877;48.238;11.160;2022-12-18T10:43:34;-1.70;99.90
5705;DHT22;2877;48.238;11.160;2022-12-18T10:51:25;-1.90;99.90
5705;DHT22;2877;48.238;11.160;2022-12-18T10:53:57;-2.10;99.90
5705;DHT22;2877;48.238;11.160;2022-12-18T10:56:24;-2.00;99.90
5705;DHT22;2877;48.238;11.160;2022-12-18T10:59:03;-2.00;99.90
5705;DHT22;2877;48.238;11.160;2022-12-18T11:04:18;-2.20;99.90
5705;DHT22;2877;48.238;11.160;2022-12-18T11:09:32;-2.20;99.90
5705;DHT22;2877;48.238;11.160;2022-12-18T11:12:00;-2.20;99.90
5705;DHT22;2877;48.238;11.160;2022-12-18T11:14:31;-2.20;99.90
5705;DHT22;2877;48.238;11.160;2022-12-18T11:16:59;-2.00;99.90
5705;DHT22;2877;48.238;11.160;2022-12-18T11:19:35;-1.80;99.90
5705;DHT22;2877;48.238;11.160;2022-12-18T11:22:17;-1.70;99.90
5705;DHT22;2877;48.238;11.160;2022-12-18T11:24:43;-1.60;99.90
5705;DHT22;2877;48.238;11.160;2022-12-18T11:27:17;-1.60;99.90
5705;DHT22;2877;48.238;11.160;2022-12-18T11:29:43;-1.70;99.90
5705;DHT22;2877;48.238;11.160;2022-12-18T11:34:51;-1.70;99.90
5705;DHT22;2877;48.238;11.160;2022-12-18T11:37:20;-1.60;99.90
5705;DHT22;2877;48.238;11.160;2022-12-18T11:39:51;-1.70;99.90
5705;DHT22;2877;48.238;11.160;2022-12-18T11:42:44;-1.60;99.90
5705;DHT22;2877;48.238;11.160;2022-12-18T11:47:44;-1.30;99.90
5705;DHT22;2877;48.238;11.160;2022-12-18T11:50:24;-1.20;99.90
5705;DHT22;2877;48.238;11.160;2022-12-18T11:52:50;-1.20;99.90
5705;DHT22;2877;48.238;11.160;2022-12-18T11:55:37;-1.10;99.90
5705;DHT22;2877;48.238;11.160;2022-12-18T12:00:56;-1.30;99.90
5705;DHT22;2877;48.238;11.160;2022-12-18T12:09:34;-1.10;99.90
5705;DHT22;2877;48.238;11.160;2022-12-18T12:14:45;-1.10;99.90
5705;DHT22;2877;48.238;11.160;2022-12-18T12:19:56;-1.60;99.90
5705;DHT22;2877;48.238;11.160;2022-12-18T12:23:09;-1.60;99.90
5705;DHT22;2877;48.238;11.160;2022-12-18T12:26:03;-1.60;99.90
5705;DHT22;2877;48.238;11.160;2022-12-18T12:29:05;-1.60;99.90
5705;DHT22;2877;48.238;11.160;2022-12-18T12:37:44;-2.00;99.90
5705;DHT22;2877;48.238;11.160;2022-12-18T12:40:18;-1.90;99.90
5705;DHT22;2877;48.238;11.160;2022-12-18T12:42:49;-1.90;99.90
5705;DHT22;2877;48.238;11.160;2022-12-18T12:46:00;-1.90;99.90
5705;DHT22;2877;48.238;11.160;2022-12-18T12:51:01;-2.20;99.90
5705;DHT22;2877;48.238;11.160;2022-12-18T12:53:38;-2.20;99.90
5705;DHT22;2877;48.238;11.160;2022-12-18T12:56:05;-2.10;99.90
5705;DHT22;2877;48.238;11.160;2022-12-18T12:58:41;-2.10;99.90
5705;DHT22;2877;48.238;11.160;2022-12-18T13:04:03;-2.20;99.90
5705;DHT22;2877;48.238;11.160;2022-12-18T13:06:42;-2.20;99.90
5705;DHT22;2877;48.238;11.160;2022-12-18T13:09:09;-2.20;99.90
5705;DHT22;2877;48.238;11.160;2022-12-18T13:11:42;-2.40;99.90
5705;DHT22;2877;48.238;11.160;2022-12-18T13:14:39;-2.50;99.90
5705;DHT22;2877;48.238;11.160;2022-12-18T13:22:35;-2.70;99.90
5705;DHT22;2877;48.238;11.160;2022-12-18T13:25:01;-2.80;99.90
5705;DHT22;2877;48.238;11.160;2022-12-18T13:27:57;-2.90;99.90
5705;DHT22;2877;48.238;11.160;2022-12-18T13:41:01;-3.60;99.90
5705;DHT22;2877;48.238;11.160;2022-12-18T13:46:00;-3.60;99.90
5705;DHT22;2877;48.238;11.160;2022-12-18T13:48:28;-3.60;99.90
5705;DHT22;2877;48.238;11.160;2022-12-18T13:53:27;-3.70;99.90
5705;DHT22;2877;48.238;11.160;2022-12-18T13:55:54;-3.80;99.90
5705;DHT22;2877;48.238;11.160;2022-12-18T13:58:20;-3.80;99.90
5705;DHT22;2877;48.238;11.160;2022-12-18T14:00:46;-3.90;99.90
5705;DHT22;2877;48.238;11.160;2022-12-18T14:03:21;-3.80;99.90
5705;DHT22;2877;48.238;11.160;2022-12-18T14:05:54;-3.70;99.90
5705;DHT22;2877;48.238;11.160;2022-12-18T14:08:20;-3.80;99.90
5705;DHT22;2877;48.238;11.160;2022-12-18T14:10:48;-3.90;99.90
5705;DHT22;2877;48.238;11.160;2022-12-18T14:13:28;-3.80;99.90
5705;DHT22;2877;48.238;11.160;2022-12-18T14:15:56;-3.70;99.90
5705;DHT22;2877;48.238;11.160;2022-12-18T14:18:27;-3.60;99.90
5705;DHT22;2877;48.238;11.160;2022-12-18T14:20:57;-3.60;99.90
5705;DHT22;2877;48.238;11.160;2022-12-18T14:23:35;-3.70;99.90
5705;DHT22;2877;48.238;11.160;2022-12-18T14:26:19;-3.70;99.90
5705;DHT22;2877;48.238;11.160;2022-12-18T14:28:45;-3.80;99.90
5705;DHT22;2877;48.238;11.160;2022-12-18T14:31:38;-3.80;99.90
5705;DHT22;2877;48.238;11.160;2022-12-18T14:34:03;-3.80;99.90
5705;DHT22;2877;48.238;11.160;2022-12-18T14:36:29;-3.90;99.90
5705;DHT22;2877;48.238;11.160;2022-12-18T14:38:58;-3.90;99.90
5705;DHT22;2877;48.238;11.160;2022-12-18T14:41:25;-3.90;99.90
5705;DHT22;2877;48.238;11.160;2022-12-18T14:43:53;-3.90;99.90
5705;DHT22;2877;48.238;11.160;2022-12-18T14:46:35;-4.00;99.90
5705;DHT22;2877;48.238;11.160;2022-12-18T14:49:45;-4.20;99.90
5705;DHT22;2877;48.238;11.160;2022-12-18T14:51:54;-4.20;99.90
5705;DHT22;2877;48.238;11.160;2022-12-18T14:54:21;-4.30;99.90
5705;DHT22;2877;48.238;11.160;2022-12-18T14:56:50;-4.20;99.90
5705;DHT22;2877;48.238;11.160;2022-12-18T14:59:19;-4.20;99.90
5705;DHT22;2877;48.238;11.160;2022-12-18T15:04:27;-4.30;99.90
5705;DHT22;2877;48.238;11.160;2022-12-18T15:09:37;-4.40;99.90
5705;DHT22;2877;48.238;11.160;2022-12-18T15:12:21;-4.40;99.90
5705;DHT22;2877;48.238;11.160;2022-12-18T15:14:48;-4.50;99.90
5705;DHT22;2877;48.238;11.160;2022-12-18T15:17:22;-4.50;99.90
5705;DHT22;2877;48.238;11.160;2022-12-18T15:19:49;-4.50;99.90
5705;DHT22;2877;48.238;11.160;2022-12-18T15:22:26;-4.50;99.90
5705;DHT22;2877;48.238;11.160;2022-12-18T15:24:52;-4.50;99.90
5705;DHT22;2877;48.238;11.160;2022-12-18T15:27:30;-4.50;99.90
5705;DHT22;2877;48.238;11.160;2022-12-18T15:32:33;-4.40;99.90
5705;DHT22;2877;48.238;11.160;2022-12-18T15:37:37;-4.50;99.90
5705;DHT22;2877;48.238;11.160;2022-12-18T15:40:03;-4.60;99.90
5705;DHT22;2877;48.238;11.160;2022-12-18T15:42:29;-4.60;99.90
5705;DHT22;2877;48.238;11.160;2022-12-18T15:45:13;-4.50;99.90
5705;DHT22;2877;48.238;11.160;2022-12-18T15:47:40;-4.50;99.90
5705;DHT22;2877;48.238;11.160;2022-12-18T15:50:07;-4.50;99.90
5705;DHT22;2877;48.238;11.160;2022-12-18T15:52:39;-4.40;99.90
5705;DHT22;2877;48.238;11.160;2022-12-18T15:55:22;-4.50;99.90
5705;DHT22;2877;48.238;11.160;2022-12-18T15:58:08;-4.40;99.90
5705;DHT22;2877;48.238;11.160;2022-12-18T16:00:35;-4.50;99.90
5705;DHT22;2877;48.238;11.160;2022-12-18T16:03:02;-4.40;99.90
5705;DHT22;2877;48.238;11.160;2022-12-18T16:05:28;-4.50;99.90
5705;DHT22;2877;48.238;11.160;2022-12-18T16:07:54;-4.50;99.90
5705;DHT22;2877;48.238;11.160;2022-12-18T16:10:20;-4.60;99.90
5705;DHT22;2877;48.238;11.160;2022-12-18T16:12:46;-4.60;99.90
5705;DHT22;2877;48.238;11.160;2022-12-18T16:15:15;-4.60;99.90
5705;DHT22;2877;48.238;11.160;2022-12-18T16:17:42;-4.50;99.90
5705;DHT22;2877;48.238;11.160;2022-12-18T16:20:16;-4.40;99.90
5705;DHT22;2877;48.238;11.160;2022-12-18T16:22:43;-4.40;99.90
5705;DHT22;2877;48.238;11.160;2022-12-18T16:27:42;-4.40;99.90
5705;DHT22;2877;48.238;11.160;2022-12-18T16:30:13;-4.40;99.90
5705;DHT22;2877;48.238;11.160;2022-12-18T16:32:38;-4.40;99.90
5705;DHT22;2877;48.238;11.160;2022-12-18T16:35:04;-4.50;99.90
5705;DHT22;2877;48.238;11.160;2022-12-18T16:37:30;-4.50;99.90
5705;DHT22;2877;48.238;11.160;2022-12-18T16:39:55;-4.50;99.90
5705;DHT22;2877;48.238;11.160;2022-12-18T16:42:21;-4.50;99.90
5705;DHT22;2877;48.238;11.160;2022-12-18T16:44:47;-4.40;99.90
5705;DHT22;2877;48.238;11.160;2022-12-18T16:47:15;-4.40;99.90
5705;DHT22;2877;48.238;11.160;2022-12-18T16:49:41;-4.50;99.90
5705;DHT22;2877;48.238;11.160;2022-12-18T16:52:07;-4.50;99.90
5705;DHT22;2877;48.238;11.160;2022-12-18T16:54:32;-4.50;99.90
5705;DHT22;2877;48.238;11.160;2022-12-18T16:56:59;-4.50;99.90
5705;DHT22;2877;48.238;11.160;2022-12-18T16:59:26;-4.50;99.90
5705;DHT22;2877;48.238;11.160;2022-12-18T17:01:52;-4.50;99.90
5705;DHT22;2877;48.238;11.160;2022-12-18T17:04:17;-4.50;99.90
5705;DHT22;2877;48.238;11.160;2022-12-18T17:06:44;-4.50;99.90
5705;DHT22;2877;48.238;11.160;2022-12-18T17:09:14;-4.40;99.90
5705;DHT22;2877;48.238;11.160;2022-12-18T17:11:45;-4.40;99.90
5705;DHT22;2877;48.238;11.160;2022-12-18T17:14:16;-4.50;99.90
5705;DHT22;2877;48.238;11.160;2022-12-18T17:16:41;-4.50;99.90
5705;DHT22;2877;48.238;11.160;2022-12-18T17:19:07;-4.50;99.90
5705;DHT22;2877;48.238;11.160;2022-12-18T17:21:33;-4.60;99.90
5705;DHT22;2877;48.238;11.160;2022-12-18T17:24:00;-4.70;99.90
5705;DHT22;2877;48.238;11.160;2022-12-18T17:26:26;-4.70;99.90
5705;DHT22;2877;48.238;11.160;2022-12-18T17:28:51;-4.70;99.90
5705;DHT22;2877;48.238;11.160;2022-12-18T17:31:19;-4.60;99.90
5705;DHT22;2877;48.238;11.160;2022-12-18T17:33:46;-4.70;99.90
5705;DHT22;2877;48.238;11.160;2022-12-18T17:36:12;-4.60;99.90
5705;DHT22;2877;48.238;11.160;2022-12-18T17:38:43;-4.70;99.90
5705;DHT22;2877;48.238;11.160;2022-12-18T17:41:14;-4.80;99.90
5705;DHT22;2877;48.238;11.160;2022-12-18T17:43:39;-4.70;99.90
5705;DHT22;2877;48.238;11.160;2022-12-18T17:46:11;-4.70;99.90
5705;DHT22;2877;48.238;11.160;2022-12-18T17:48:37;-4.70;99.90
5705;DHT22;2877;48.238;11.160;2022-12-18T17:51:03;-4.70;99.90